Terminal Aerodrome Forecast
Issued by NWS

Home | Current Version | Previous Version | Text Only | Print | Product List | Glossary On
Versions: 1 2 3 4 5 6 7 8 9 10 11 12 13 14 15 16
000
FTUS41 KBTV 272138 AAE
TAFRUT
TAF AMD
KRUT 272138Z 2722/2818 23006KT P6SM VCTS SCT025CB BKN045
      TEMPO 2722/2724 4SM -TSRA BKN020CB BKN030
     FM280000 15008KT P6SM BKN040
     FM280800 15007KT 3SM BR SCT140
     FM281200 23008G20KT P6SM VCSH SCT050 BKN150
      AMD LTD TO CLD VIS AND WIND=

USA.gov is the U.S. government's official web portal to all federal, state and local government web resources and services.